Terminal Aerodrome Forecast
Issued by NWS

Home | Current Version | Previous Version | Text Only | Print | Product List | Glossary On
Versions: 1 2 3 4 5 6 7 8 9 10 11 12 13 14 15 16 17 18 19 20 21 22 23 24 25 26 27 28 29 30 31 32 33 34 35 36 37 38 39 40 41
000
FTUS43 KPAH 201700
TAFOWB
TAF
KOWB 201720Z 2018/2118 24006KT P6SM VCTS SCT020CB BKN100
     FM201930 25008KT P6SM SCT060 BKN250
     FM202300 00000KT P6SM SCT250
      TEMPO 2110/2112 5SM BR
     FM211400 22007KT P6SM SCT030=

USA.gov is the U.S. government's official web portal to all federal, state and local government web resources and services.